Time;durP1;ratioP1;P1;durP2;ratioP2;P2;SDS_P1;SDS_P2;PMS_P1;PMS_P2;Temp;Humidity;BMP_temperature;BMP_pressure;BME280_temperature;BME280_humidity;BME280_pressure;Samples;Min_cycle;Max_cycle;Signal;HPM_P1;HPM_P2
2021/07/14 00:02:29;;;;;;;;;46.00;38.75;;;;;;;;8751045;40;11160;-68
2021/07/14 00:08:31;;;;;;;;;43.33;38.00;;;;;;;;8752170;40;10854;-66
2021/07/14 00:27:06;;;;;;;;;47.00;40.33;;;;;;;;8751057;40;10630;-67
2021/07/14 00:33:09;;;;;;;;;45.33;37.33;;;;;;;;8741526;40;10565;-68
2021/07/14 00:39:11;;;;;;;;;43.33;37.67;;;;;;;;8752697;40;9989;-68
2021/07/14 00:45:13;;;;;;;;;47.67;41.00;;;;;;;;8750490;40;10018;-67
2021/07/14 00:51:17;;;;;;;;;33.67;33.00;;;;;;;;8751614;40;10575;-67
2021/07/14 00:57:21;;;;;;;;;44.00;37.67;;;;;;;;8750500;40;10734;-66
2021/07/14 01:03:26;;;;;;;;;43.33;34.33;;;;;;;;8751552;40;10349;-67
2021/07/14 01:09:43;;;;;;;;;41.00;35.00;;;;;;;;8751142;40;11041;-66
2021/07/14 01:16:01;;;;;;;;;44.33;41.00;;;;;;;;8751384;40;10007;-67
2021/07/14 01:22:14;;;;;;;;;42.67;36.00;;;;;;;;8751041;40;10997;-66
2021/07/14 01:28:17;;;;;;;;;33.33;33.00;;;;;;;;8750176;40;9956;-69
2021/07/14 01:34:22;;;;;;;;;44.00;38.00;;;;;;;;8751042;40;10010;-67
2021/07/14 01:40:28;;;;;;;;;46.67;40.00;;;;;;;;8750554;40;10001;-67
2021/07/14 01:46:33;;;;;;;;;41.00;36.33;;;;;;;;8750199;40;10830;-66
2021/07/14 01:52:36;;;;;;;;;43.00;39.00;;;;;;;;8750715;40;10307;-67
2021/07/14 01:58:42;;;;;;;;;52.00;42.67;;;;;;;;8750033;40;9925;-67
2021/07/14 02:04:45;;;;;;;;;51.67;42.33;;;;;;;;8750634;40;10526;-66
2021/07/14 02:10:48;;;;;;;;;45.00;38.67;;;;;;;;8749621;40;10019;-66
2021/07/14 02:16:50;;;;;;;;;55.33;42.33;;;;;;;;8750047;40;10002;-68
2021/07/14 02:22:54;;;;;;;;;44.00;41.00;;;;;;;;8750615;40;9959;-67
2021/07/14 02:28:56;;;;;;;;;44.00;39.00;;;;;;;;8749710;40;10124;-67
2021/07/14 02:34:58;;;;;;;;;48.00;42.00;;;;;;;;8750968;40;9933;-67
2021/07/14 02:41:06;;;;;;;;;44.33;39.67;;;;;;;;8754331;40;10043;-68
2021/07/14 02:47:09;;;;;;;;;47.67;39.00;;;;;;;;8753757;40;10935;-68
2021/07/14 02:53:16;;;;;;;;;46.33;42.33;;;;;;;;8755020;40;10585;-67
2021/07/14 02:59:24;;;;;;;;;46.67;40.00;;;;;;;;8753947;40;10564;-67
2021/07/14 03:05:27;;;;;;;;;38.33;35.00;;;;;;;;8743070;40;10476;-67
2021/07/14 03:11:39;;;;;;;;;37.67;32.67;;;;;;;;8751125;40;10354;-66
2021/07/14 03:17:43;;;;;;;;;45.33;41.33;;;;;;;;8753492;40;9960;-67
2021/07/14 03:23:46;;;;;;;;;52.33;41.67;;;;;;;;8752547;40;11375;-67
2021/07/14 03:29:50;;;;;;;;;42.33;38.67;;;;;;;;8742856;40;10408;-68
2021/07/14 03:35:52;;;;;;;;;43.33;38.33;;;;;;;;8752073;40;10380;-67
2021/07/14 03:41:55;;;;;;;;;42.33;38.00;;;;;;;;8751895;40;10439;-68
2021/07/14 03:47:59;;;;;;;;;42.00;37.67;;;;;;;;8752531;40;10586;-67
2021/07/14 03:54:03;;;;;;;;;42.33;37.00;;;;;;;;8753001;40;10185;-67
2021/07/14 04:00:05;;;;;;;;;43.00;36.67;;;;;;;;8751495;40;10871;-68
2021/07/14 04:06:08;;;;;;;;;43.75;39.50;;;;;;;;9862891;23;11064;-60
2021/07/14 04:12:10;;;;;;;;;42.33;38.33;;;;;;;;8780062;40;10245;-60
2021/07/14 04:18:12;;;;;;;;;50.00;41.33;;;;;;;;8778014;40;11328;-60
2021/07/14 04:24:15;;;;;;;;;51.33;43.67;;;;;;;;8777920;40;10418;-59
2021/07/14 04:30:18;;;;;;;;;41.67;37.33;;;;;;;;8777915;40;10695;-60
2021/07/14 04:36:20;;;;;;;;;39.00;37.50;;;;;;;;8775905;40;10960;-61
2021/07/14 04:42:22;;;;;;;;;43.50;38.75;;;;;;;;8778162;40;11083;-60
2021/07/14 04:48:26;;;;;;;;;47.00;40.25;;;;;;;;8778027;40;10935;-60
2021/07/14 04:54:29;;;;;;;;;38.00;33.50;;;;;;;;8778193;40;10841;-60
2021/07/14 05:00:31;;;;;;;;;40.50;35.75;;;;;;;;8776581;40;11563;-61
2021/07/14 05:06:33;;;;;;;;;36.25;34.00;;;;;;;;8777805;40;10851;-60
2021/07/14 05:12:35;;;;;;;;;41.00;35.25;;;;;;;;8778836;40;10915;-61
2021/07/14 05:18:37;;;;;;;;;35.75;32.50;;;;;;;;8776898;40;10962;-60
2021/07/14 05:24:40;;;;;;;;;40.25;35.25;;;;;;;;8776759;40;10759;-60
2021/07/14 05:30:42;;;;;;;;;38.50;34.25;;;;;;;;8759783;40;10699;-59
2021/07/14 05:36:44;;;;;;;;;37.00;32.00;;;;;;;;8765734;40;10843;-59
2021/07/14 05:42:46;;;;;;;;;31.75;31.75;;;;;;;;8776812;40;10677;-62
2021/07/14 05:48:49;;;;;;;;;35.75;35.25;;;;;;;;8777023;40;10701;-59
2021/07/14 05:54:52;;;;;;;;;28.25;26.00;;;;;;;;8776667;40;10560;-60
2021/07/14 06:00:54;;;;;;;;;32.00;31.75;;;;;;;;8775615;40;11618;-59
2021/07/14 06:06:59;;;;;;;;;29.00;29.00;;;;;;;;8769889;40;11138;-62
2021/07/14 06:13:00;;;;;;;;;32.25;29.00;;;;;;;;8776642;40;10603;-60
2021/07/14 06:19:02;;;;;;;;;37.75;35.25;;;;;;;;8772961;40;10615;-60
2021/07/14 06:25:06;;;;;;;;;39.25;35.75;;;;;;;;8774831;40;10575;-61
2021/07/14 06:31:14;;;;;;;;;36.00;32.00;;;;;;;;8773837;40;10617;-60
2021/07/14 06:37:17;;;;;;;;;31.00;29.50;;;;;;;;8770593;40;11208;-60
2021/07/14 06:43:19;;;;;;;;;38.00;33.50;;;;;;;;8772138;40;10746;-61
2021/07/14 06:49:21;;;;;;;;;23.25;23.25;;;;;;;;8761275;40;10665;-60
2021/07/14 06:55:24;;;;;;;;;28.00;25.50;;;;;;;;8772685;40;10552;-61
2021/07/14 07:01:26;;;;;;;;;30.25;29.50;;;;;;;;8763984;40;11029;-63
2021/07/14 07:07:28;;;;;;;;;31.00;29.00;;;;;;;;8768172;40;11021;-60
2021/07/14 07:13:31;;;;;;;;;28.75;26.75;;;;;;;;8768367;40;10897;-62
2021/07/14 07:19:34;;;;;;;;;29.50;28.50;;;;;;;;8767477;40;10568;-61
2021/07/14 07:25:36;;;;;;;;;16.75;15.75;;;;;;;;8768352;40;10470;-62
2021/07/14 07:31:39;;;;;;;;;30.00;29.50;;;;;;;;8770186;40;10756;-62
2021/07/14 07:37:41;;;;;;;;;22.00;20.50;;;;;;;;8763655;40;10657;-62
2021/07/14 07:43:43;;;;;;;;;23.75;23.50;;;;;;;;8762749;40;10558;-59
2021/07/14 07:49:46;;;;;;;;;26.25;25.00;;;;;;;;8766388;40;10630;-60
2021/07/14 07:56:01;;;;;;;;;25.50;23.50;;;;;;;;8767910;40;10710;-60
2021/07/14 08:02:05;;;;;;;;;30.25;28.25;;;;;;;;8763820;40;10561;-61
2021/07/14 08:08:07;;;;;;;;;24.50;24.50;;;;;;;;8763689;40;10770;-61
2021/07/14 08:14:10;;;;;;;;;27.00;24.25;;;;;;;;8762342;40;10683;-60
2021/07/14 08:20:12;;;;;;;;;29.50;28.00;;;;;;;;8762524;40;10578;-60
2021/07/14 08:26:16;;;;;;;;;23.25;22.00;;;;;;;;8763393;40;10649;-61
2021/07/14 08:32:18;;;;;;;;;22.50;22.00;;;;;;;;8766042;40;10602;-61
2021/07/14 08:38:21;;;;;;;;;22.50;21.50;;;;;;;;8766876;40;11288;-61
2021/07/14 08:44:24;;;;;;;;;14.50;12.75;;;;;;;;8765212;40;10843;-61
2021/07/14 08:50:27;;;;;;;;;20.75;20.75;;;;;;;;8764379;40;10618;-60
2021/07/14 08:56:29;;;;;;;;;21.25;19.50;;;;;;;;8764732;40;10687;-61
2021/07/14 09:02:32;;;;;;;;;24.00;22.00;;;;;;;;8764060;40;10664;-62
2021/07/14 09:08:34;;;;;;;;;25.75;19.50;;;;;;;;8763768;40;11261;-62
2021/07/14 09:14:40;;;;;;;;;27.25;24.00;;;;;;;;8757587;40;10609;-59
2021/07/14 09:20:43;;;;;;;;;20.25;19.75;;;;;;;;8762042;40;10817;-61
2021/07/14 09:26:45;;;;;;;;;23.00;22.50;;;;;;;;8763838;40;10600;-61
2021/07/14 09:32:54;;;;;;;;;23.75;22.25;;;;;;;;8765809;40;10603;-62
2021/07/14 09:39:03;;;;;;;;;26.50;23.75;;;;;;;;8766754;40;10653;-61
2021/07/14 09:45:07;;;;;;;;;23.00;19.25;;;;;;;;8771471;40;10587;-62
2021/07/14 09:51:19;;;;;;;;;23.25;21.75;;;;;;;;8769366;40;10621;-60
2021/07/14 09:57:24;;;;;;;;;23.75;23.25;;;;;;;;8758769;40;10532;-63
2021/07/14 10:03:28;;;;;;;;;20.00;19.50;;;;;;;;8762677;40;11061;-61
2021/07/14 10:09:30;;;;;;;;;25.00;25.00;;;;;;;;8767039;40;10597;-62
2021/07/14 10:15:32;;;;;;;;;19.50;19.50;;;;;;;;8768371;40;10587;-61
2021/07/14 10:21:41;;;;;;;;;25.00;21.00;;;;;;;;8755828;40;11127;-60
2021/07/14 10:27:46;;;;;;;;;23.25;20.75;;;;;;;;8760704;40;10429;-61
2021/07/14 10:33:52;;;;;;;;;18.00;18.00;;;;;;;;8766722;40;10431;-60
2021/07/14 10:39:56;;;;;;;;;25.25;23.50;;;;;;;;8759504;40;10610;-61
2021/07/14 10:46:00;;;;;;;;;27.75;23.50;;;;;;;;8767225;40;10479;-62
2021/07/14 10:52:02;;;;;;;;;24.75;21.75;;;;;;;;8768411;40;10455;-60
2021/07/14 10:58:05;;;;;;;;;25.00;22.25;;;;;;;;8770059;40;10689;-61
2021/07/14 11:04:19;;;;;;;;;25.00;23.75;;;;;;;;8766701;40;10423;-61
2021/07/14 11:10:39;;;;;;;;;24.50;24.00;;;;;;;;8763796;40;10491;-61
2021/07/14 11:16:41;;;;;;;;;21.50;18.00;;;;;;;;8765304;40;10454;-61
2021/07/14 11:22:45;;;;;;;;;24.25;22.50;;;;;;;;8771268;40;10468;-61
2021/07/14 11:29:12;;;;;;;;;18.75;18.50;;;;;;;;8764150;40;10924;-61
2021/07/14 11:35:45;;;;;;;;;19.50;17.00;;;;;;;;8770713;40;10541;-63
2021/07/14 11:41:49;;;;;;;;;21.75;21.50;;;;;;;;8757682;40;11002;-61
2021/07/14 11:48:12;;;;;;;;;22.25;21.00;;;;;;;;8769608;40;10627;-62
2021/07/14 11:54:24;;;;;;;;;24.00;23.00;;;;;;;;8766910;40;11096;-64
2021/07/14 12:00:34;;;;;;;;;25.00;23.25;;;;;;;;8760775;40;10696;-63
2021/07/14 12:06:39;;;;;;;;;18.50;18.50;;;;;;;;8763543;40;10416;-61
2021/07/14 12:12:46;;;;;;;;;25.75;25.75;;;;;;;;8773598;40;10557;-61
2021/07/14 12:18:58;;;;;;;;;24.50;22.00;;;;;;;;8762269;40;10515;-61
2021/07/14 12:25:10;;;;;;;;;25.75;24.00;;;;;;;;8763621;40;10414;-62
2021/07/14 12:31:13;;;;;;;;;27.25;25.50;;;;;;;;8757372;40;10430;-61
2021/07/14 12:37:15;;;;;;;;;25.00;25.00;;;;;;;;8763298;40;10518;-63
2021/07/14 12:43:20;;;;;;;;;26.75;25.25;;;;;;;;8763394;40;10982;-64
2021/07/14 12:49:23;;;;;;;;;26.50;25.00;;;;;;;;8772736;40;10457;-62
2021/07/14 12:55:27;;;;;;;;;27.25;24.50;;;;;;;;8758319;40;10387;-62
2021/07/14 13:01:32;;;;;;;;;24.50;24.50;;;;;;;;8765282;40;10502;-62
2021/07/14 13:07:36;;;;;;;;;28.00;24.00;;;;;;;;8768518;40;10523;-61
2021/07/14 13:13:39;;;;;;;;;23.75;22.50;;;;;;;;8771411;40;10459;-62
2021/07/14 13:19:41;;;;;;;;;27.00;24.75;;;;;;;;8769937;40;10505;-62
2021/07/14 13:25:53;;;;;;;;;26.25;23.75;;;;;;;;8766928;40;10606;-62
2021/07/14 13:32:14;;;;;;;;;36.75;32.00;;;;;;;;8767311;40;11003;-60
2021/07/14 13:39:02;;;;;;;;;31.00;29.50;;;;;;;;8772359;40;10657;-60
2021/07/14 13:45:04;;;;;;;;;34.00;29.25;;;;;;;;8758461;40;10450;-64
2021/07/14 13:51:06;;;;;;;;;27.75;25.50;;;;;;;;8766400;40;11363;-63
2021/07/14 13:57:09;;;;;;;;;27.00;26.00;;;;;;;;8771606;40;10506;-60
2021/07/14 14:03:21;;;;;;;;;27.25;27.25;;;;;;;;8761363;40;10579;-62
2021/07/14 14:09:23;;;;;;;;;29.25;28.25;;;;;;;;8748946;40;10494;-64
2021/07/14 14:15:28;;;;;;;;;26.25;26.25;;;;;;;;8776595;40;10469;-63
2021/07/14 14:21:30;;;;;;;;;25.25;25.25;;;;;;;;8774771;40;10906;-63
2021/07/14 14:27:45;;;;;;;;;23.00;21.75;;;;;;;;8774500;40;10490;-62
2021/07/14 14:33:52;;;;;;;;;25.50;24.00;;;;;;;;8777942;40;10517;-62
2021/07/14 14:39:55;;;;;;;;;23.75;21.25;;;;;;;;8769266;40;10424;-62
2021/07/14 14:45:57;;;;;;;;;24.25;22.50;;;;;;;;8778637;40;10515;-62
2021/07/14 14:51:59;;;;;;;;;29.50;28.50;;;;;;;;8777511;40;10399;-63
2021/07/14 14:58:01;;;;;;;;;23.00;22.25;;;;;;;;8777874;40;10453;-62
2021/07/14 15:04:03;;;;;;;;;20.00;18.75;;;;;;;;8777753;40;10511;-65
2021/07/14 15:10:07;;;;;;;;;18.50;18.50;;;;;;;;8777889;40;10478;-64
2021/07/14 15:16:09;;;;;;;;;27.25;25.25;;;;;;;;8777869;40;10467;-63
2021/07/14 15:22:14;;;;;;;;;24.50;23.00;;;;;;;;8777586;40;10472;-62
2021/07/14 15:34:36;;;;;;;;;17.25;17.25;;;;;;;;8778068;40;11033;-60
2021/07/14 15:40:38;;;;;;;;;21.25;20.00;;;;;;;;8777863;40;10468;-61
2021/07/14 15:46:40;;;;;;;;;19.25;18.75;;;;;;;;8775929;40;10438;-63
2021/07/14 15:52:43;;;;;;;;;20.00;18.75;;;;;;;;8776731;40;10275;-63
2021/07/14 15:58:44;;;;;;;;;18.25;16.25;;;;;;;;8777577;40;10702;-62
2021/07/14 16:04:47;;;;;;;;;17.50;17.50;;;;;;;;8776408;40;10672;-61
2021/07/14 16:10:48;;;;;;;;;14.50;14.50;;;;;;;;8777926;40;10445;-62
2021/07/14 16:16:50;;;;;;;;;12.75;12.75;;;;;;;;8766775;40;10448;-60
2021/07/14 16:22:54;;;;;;;;;16.00;15.75;;;;;;;;8776464;40;10349;-62
2021/07/14 16:28:56;;;;;;;;;14.25;14.00;;;;;;;;8776228;40;10418;-64
2021/07/14 16:34:58;;;;;;;;;15.00;13.25;;;;;;;;8776829;40;10453;-62
2021/07/14 16:41:03;;;;;;;;;13.00;12.25;;;;;;;;8776299;40;11426;-61
2021/07/14 16:47:05;;;;;;;;;16.75;16.00;;;;;;;;8774673;40;10390;-62
2021/07/14 16:53:07;;;;;;;;;14.75;14.25;;;;;;;;8775717;40;10361;-60
2021/07/14 16:59:09;;;;;;;;;14.50;14.00;;;;;;;;8775747;40;10571;-61
2021/07/14 17:05:12;;;;;;;;;15.50;13.25;;;;;;;;8775497;40;10472;-61
2021/07/14 17:11:14;;;;;;;;;17.00;16.50;;;;;;;;8776723;40;10494;-61
2021/07/14 17:17:16;;;;;;;;;12.00;11.75;;;;;;;;8774701;40;10493;-61
2021/07/14 17:23:18;;;;;;;;;20.25;19.50;;;;;;;;8776209;40;10341;-62
2021/07/14 17:29:20;;;;;;;;;12.00;12.00;;;;;;;;8774580;40;10387;-63
2021/07/14 17:35:22;;;;;;;;;16.25;12.50;;;;;;;;8775684;40;10513;-61
2021/07/14 17:41:24;;;;;;;;;14.25;11.50;;;;;;;;8775722;40;10470;-60
2021/07/14 17:47:26;;;;;;;;;16.75;16.75;;;;;;;;8774027;40;10477;-62
2021/07/14 17:53:28;;;;;;;;;10.25;10.25;;;;;;;;8775000;40;10302;-61
2021/07/14 17:59:30;;;;;;;;;13.50;13.50;;;;;;;;8774548;40;10407;-62
2021/07/14 18:05:34;;;;;;;;;11.50;11.00;;;;;;;;8778145;40;10582;-61
2021/07/14 18:11:36;;;;;;;;;27.00;22.00;;;;;;;;8782690;40;10479;-61
2021/07/14 18:17:40;;;;;;;;;18.25;18.25;;;;;;;;8781847;40;10466;-62
2021/07/14 18:23:42;;;;;;;;;14.75;13.00;;;;;;;;8783250;40;10442;-61
2021/07/14 18:29:44;;;;;;;;;15.75;15.75;;;;;;;;8781897;40;10451;-61
2021/07/14 18:35:47;;;;;;;;;16.75;15.50;;;;;;;;8781302;40;10432;-60
2021/07/14 18:41:49;;;;;;;;;12.75;12.75;;;;;;;;8783031;40;10445;-60
2021/07/14 18:47:52;;;;;;;;;15.25;13.25;;;;;;;;8780610;40;10464;-61
2021/07/14 18:53:54;;;;;;;;;15.50;11.75;;;;;;;;8781969;40;10324;-60
2021/07/14 18:59:57;;;;;;;;;10.25;9.50;;;;;;;;8782463;40;10976;-63
2021/07/14 19:06:01;;;;;;;;;15.25;12.75;;;;;;;;8781569;40;10530;-61
2021/07/14 19:12:03;;;;;;;;;14.75;11.00;;;;;;;;8781645;40;10404;-61
2021/07/14 19:18:05;;;;;;;;;13.75;13.75;;;;;;;;8778372;40;10406;-61
2021/07/14 19:24:07;;;;;;;;;15.00;15.00;;;;;;;;8777501;40;10414;-61
2021/07/14 19:30:13;;;;;;;;;13.00;13.00;;;;;;;;8777525;40;10353;-60
2021/07/14 19:36:15;;;;;;;;;12.25;11.25;;;;;;;;8777953;40;10593;-62
2021/07/14 19:42:18;;;;;;;;;12.00;11.75;;;;;;;;8776737;40;10462;-60
2021/07/14 19:48:20;;;;;;;;;12.00;12.00;;;;;;;;8777826;40;10513;-60
2021/07/14 19:54:23;;;;;;;;;15.00;14.75;;;;;;;;8776795;40;11023;-61
2021/07/14 20:00:25;;;;;;;;;11.50;11.50;;;;;;;;8777085;40;10310;-61
2021/07/14 20:06:27;;;;;;;;;15.75;15.75;;;;;;;;8777417;40;10543;-61
2021/07/14 20:12:29;;;;;;;;;12.50;12.50;;;;;;;;8777797;40;10538;-59
2021/07/14 20:18:31;;;;;;;;;14.25;12.00;;;;;;;;8775441;40;10601;-60
2021/07/14 20:24:34;;;;;;;;;20.75;17.75;;;;;;;;8777756;40;10456;-59
2021/07/14 20:30:36;;;;;;;;;16.50;14.00;;;;;;;;8775298;40;10462;-61
2021/07/14 20:36:38;;;;;;;;;16.50;14.75;;;;;;;;8776378;40;10951;-61
2021/07/14 20:42:42;;;;;;;;;16.00;14.50;;;;;;;;8776311;40;10364;-61
2021/07/14 20:48:44;;;;;;;;;16.75;14.50;;;;;;;;8774619;40;10474;-59
2021/07/14 20:54:46;;;;;;;;;14.25;12.50;;;;;;;;8775697;40;10810;-60
2021/07/14 21:00:48;;;;;;;;;14.50;14.50;;;;;;;;8775385;40;10484;-60
2021/07/14 21:06:51;;;;;;;;;14.75;14.50;;;;;;;;8776244;40;10429;-61
2021/07/14 21:12:53;;;;;;;;;14.75;12.25;;;;;;;;8776384;40;10597;-60
2021/07/14 21:18:55;;;;;;;;;14.75;13.50;;;;;;;;8776061;40;10518;-60
2021/07/14 21:24:58;;;;;;;;;17.50;16.00;;;;;;;;8776510;40;10456;-61
2021/07/14 21:31:01;;;;;;;;;17.75;15.75;;;;;;;;8774973;40;10473;-61
2021/07/14 21:37:03;;;;;;;;;19.00;17.75;;;;;;;;8776117;40;10499;-60
2021/07/14 21:43:05;;;;;;;;;14.00;14.00;;;;;;;;8776535;40;10499;-59
2021/07/14 21:49:08;;;;;;;;;12.25;12.25;;;;;;;;8775406;40;10587;-60
2021/07/14 21:55:10;;;;;;;;;17.25;16.75;;;;;;;;8774799;40;10299;-59
2021/07/14 22:01:12;;;;;;;;;15.25;13.75;;;;;;;;8775733;40;11035;-59
2021/07/14 22:07:14;;;;;;;;;17.00;14.50;;;;;;;;8774956;40;10516;-61
2021/07/14 22:13:16;;;;;;;;;17.50;14.25;;;;;;;;8775829;40;10441;-60
2021/07/14 22:19:21;;;;;;;;;12.00;12.00;;;;;;;;8773947;40;10384;-60
2021/07/14 22:25:28;;;;;;;;;9.25;9.25;;;;;;;;8765625;40;10358;-60
2021/07/14 22:31:33;;;;;;;;;17.25;15.25;;;;;;;;8774863;40;11060;-60
2021/07/14 22:37:38;;;;;;;;;14.00;14.00;;;;;;;;8774090;40;10539;-60
2021/07/14 22:43:40;;;;;;;;;14.00;14.00;;;;;;;;8775508;40;11031;-60
2021/07/14 22:49:42;;;;;;;;;14.00;12.25;;;;;;;;8774303;40;10996;-59
2021/07/14 22:55:44;;;;;;;;;12.75;12.00;;;;;;;;8777299;40;10442;-59
2021/07/14 23:01:46;;;;;;;;;14.50;14.50;;;;;;;;8777248;40;10927;-59
2021/07/14 23:07:49;;;;;;;;;14.25;13.00;;;;;;;;8777941;40;10757;-59
2021/07/14 23:13:51;;;;;;;;;15.50;14.75;;;;;;;;8777641;40;10442;-59
2021/07/14 23:19:53;;;;;;;;;15.00;15.00;;;;;;;;8777556;40;10499;-59
2021/07/14 23:25:55;;;;;;;;;17.00;16.00;;;;;;;;8778097;40;10429;-59
2021/07/14 23:31:57;;;;;;;;;15.75;15.75;;;;;;;;8777717;40;10759;-59
2021/07/14 23:37:59;;;;;;;;;17.00;16.00;;;;;;;;8777997;40;10599;-60
2021/07/14 23:44:01;;;;;;;;;12.75;12.75;;;;;;;;8776700;40;10465;-60
2021/07/14 23:50:06;;;;;;;;;14.50;14.50;;;;;;;;8767513;40;10475;-59
2021/07/14 23:56:07;;;;;;;;;17.75;16.50;;;;;;;;8777183;40;10501;-60
